createdAt,value
2018-10-03T00:01:20.823Z,2.20
2018-10-03T00:03:48.859Z,3.20
2018-10-03T00:06:23.499Z,2.73
2018-10-03T00:08:51.656Z,2.53
2018-10-03T00:11:19.683Z,2.80
2018-10-03T00:13:47.389Z,2.40
2018-10-03T00:16:15.869Z,2.93
2018-10-03T00:18:43.938Z,2.10
2018-10-03T00:21:12.036Z,2.70
2018-10-03T00:23:39.838Z,2.10
2018-10-03T00:26:08.298Z,2.30
2018-10-03T00:28:36.213Z,3.40
2018-10-03T00:31:04.325Z,3.17
2018-10-03T00:33:33.121Z,1.90
2018-10-03T00:36:01.029Z,2.47
2018-10-03T00:38:29.046Z,3.50
2018-10-03T00:40:57.223Z,2.83
2018-10-03T00:43:27.059Z,3.03
2018-10-03T00:45:55.234Z,3.50
2018-10-03T00:48:23.457Z,3.63
2018-10-03T00:50:51.886Z,2.77
2018-10-03T00:53:20.275Z,3.47
2018-10-03T00:55:48.720Z,3.20
2018-10-03T00:58:17.336Z,3.03
2018-10-03T01:00:45.638Z,3.67
2018-10-03T01:03:13.556Z,4.07
2018-10-03T01:05:41.604Z,3.80
2018-10-03T01:08:10.197Z,3.57
2018-10-03T01:10:38.432Z,4.60
2018-10-03T01:13:07.502Z,3.10
2018-10-03T01:15:35.792Z,2.53
2018-10-03T01:18:03.769Z,4.23
2018-10-03T01:20:31.572Z,4.27
2018-10-03T01:22:59.388Z,3.53
2018-10-03T01:25:27.461Z,6.17
2018-10-03T01:27:55.459Z,3.37
2018-10-03T01:30:23.347Z,3.17
2018-10-03T01:32:51.277Z,3.57
2018-10-03T01:35:19.213Z,2.73
2018-10-03T01:37:47.000Z,2.87
2018-10-03T01:40:15.034Z,2.70
2018-10-03T01:42:42.775Z,3.70
2018-10-03T01:45:10.657Z,3.47
2018-10-03T01:47:38.308Z,2.67
2018-10-03T01:50:06.271Z,2.83
2018-10-03T01:52:34.447Z,2.97
2018-10-03T01:55:02.327Z,2.40
2018-10-03T01:57:36.919Z,3.17
2018-10-03T02:00:05.633Z,2.80
2018-10-03T02:02:33.448Z,2.10
2018-10-03T02:05:01.780Z,2.87
2018-10-03T02:07:29.596Z,3.00
2018-10-03T02:09:57.469Z,2.90
2018-10-03T02:12:25.289Z,2.70
2018-10-03T02:14:52.938Z,2.50
2018-10-03T02:17:20.808Z,2.33
2018-10-03T02:19:48.637Z,3.20
2018-10-03T02:22:16.523Z,2.33
2018-10-03T02:24:44.344Z,3.13
2018-10-03T02:27:12.139Z,2.27
2018-10-03T02:29:39.932Z,2.60
2018-10-03T02:32:07.737Z,1.43
2018-10-03T02:34:35.532Z,2.93
2018-10-03T02:37:03.569Z,2.10
2018-10-03T02:39:31.413Z,2.60
2018-10-03T02:41:59.212Z,1.63
2018-10-03T02:44:27.015Z,1.87
2018-10-03T02:46:54.703Z,1.60
2018-10-03T02:49:22.576Z,2.40
2018-10-03T02:51:50.377Z,3.00
2018-10-03T02:54:18.201Z,1.67
2018-10-03T02:56:45.944Z,1.90
2018-10-03T02:59:14.037Z,2.40
2018-10-03T03:01:42.053Z,2.13
2018-10-03T03:04:09.750Z,1.93
2018-10-03T03:06:37.640Z,1.73
2018-10-03T03:09:08.993Z,2.30
2018-10-03T03:11:36.844Z,2.70
2018-10-03T03:14:04.775Z,2.13
2018-10-03T03:16:33.666Z,2.17
2018-10-03T03:19:01.665Z,2.70
2018-10-03T03:21:29.838Z,1.60
2018-10-03T03:23:57.617Z,2.70
2018-10-03T03:26:25.690Z,2.27
2018-10-03T03:28:54.165Z,2.80
2018-10-03T03:31:21.898Z,2.40
2018-10-03T03:33:49.680Z,2.30
2018-10-03T03:36:17.617Z,2.43
2018-10-03T03:38:45.447Z,2.30
2018-10-03T03:41:13.334Z,2.30
2018-10-03T03:43:41.292Z,2.67
2018-10-03T03:46:09.229Z,3.40
2018-10-03T03:48:38.345Z,2.57
2018-10-03T03:51:07.226Z,3.30
2018-10-03T03:53:35.059Z,3.57
2018-10-03T03:56:03.011Z,2.07
2018-10-03T03:58:31.983Z,3.83
2018-10-03T04:00:59.844Z,2.90
2018-10-03T04:03:27.662Z,3.30
2018-10-03T04:05:55.533Z,3.70
2018-10-03T04:08:23.317Z,3.10
2018-10-03T04:10:51.211Z,3.10
2018-10-03T04:13:19.003Z,3.70
2018-10-03T04:15:47.218Z,3.50
2018-10-03T04:18:15.032Z,2.63
2018-10-03T04:20:42.812Z,2.77
2018-10-03T04:23:10.672Z,3.97
2018-10-03T04:25:38.673Z,2.67
2018-10-03T04:28:06.403Z,4.30
2018-10-03T04:30:34.312Z,2.90
2018-10-03T04:33:02.038Z,5.50
2018-10-03T04:38:04.252Z,3.50
2018-10-03T04:40:32.147Z,3.53
2018-10-03T04:42:59.922Z,5.83
2018-10-03T04:45:27.718Z,3.80
2018-10-03T04:47:55.570Z,3.23
2018-10-03T04:50:23.427Z,4.03
2018-10-03T04:52:51.165Z,3.20
2018-10-03T04:55:18.952Z,2.40
2018-10-03T04:57:47.090Z,2.27
2018-10-03T05:00:14.898Z,1.50
2018-10-03T05:02:42.824Z,1.97
2018-10-03T05:05:10.716Z,1.73
2018-10-03T05:07:38.410Z,2.23
2018-10-03T05:10:06.577Z,2.20
2018-10-03T05:12:34.354Z,2.30
2018-10-03T05:15:09.199Z,2.50
2018-10-03T05:17:37.133Z,2.20
2018-10-03T05:20:05.030Z,2.43
2018-10-03T05:22:33.034Z,1.97
2018-10-03T05:25:00.815Z,2.80
2018-10-03T05:27:28.628Z,2.13
2018-10-03T05:29:56.376Z,2.17
2018-10-03T05:32:24.369Z,1.70
2018-10-03T05:34:53.506Z,1.83
2018-10-03T05:37:21.410Z,1.67
2018-10-03T05:39:49.069Z,1.93
2018-10-03T05:42:16.853Z,1.87
2018-10-03T05:44:44.718Z,2.20
2018-10-03T05:47:12.591Z,1.53
2018-10-03T05:49:40.396Z,1.87
2018-10-03T05:52:08.422Z,1.63
2018-10-03T05:54:36.364Z,2.23
2018-10-03T05:57:04.099Z,1.87
2018-10-03T05:59:32.170Z,2.80
2018-10-03T06:02:00.005Z,2.30
2018-10-03T06:04:27.817Z,2.60
2018-10-03T06:06:55.686Z,2.93
2018-10-03T06:09:23.560Z,3.00
2018-10-03T06:11:51.715Z,2.17
2018-10-03T06:14:19.501Z,2.10
2018-10-03T06:16:47.148Z,1.80
2018-10-03T06:19:15.019Z,2.10
2018-10-03T06:21:42.958Z,2.23
2018-10-03T06:24:10.751Z,1.40
2018-10-03T06:26:38.777Z,1.63
2018-10-03T06:29:06.900Z,1.80
2018-10-03T06:31:34.728Z,1.57
2018-10-03T06:34:02.624Z,1.63
2018-10-03T06:36:30.629Z,1.40
2018-10-03T06:38:58.613Z,1.40
2018-10-03T06:41:26.565Z,2.33
2018-10-03T06:43:54.551Z,1.70
2018-10-03T06:46:22.522Z,1.70
2018-10-03T06:48:50.388Z,2.00
2018-10-03T06:51:18.353Z,1.57
2018-10-03T06:53:46.771Z,1.83
2018-10-03T06:56:14.629Z,1.77
2018-10-03T06:58:42.654Z,2.13
2018-10-03T07:01:12.696Z,2.07
2018-10-03T07:03:40.656Z,2.13
2018-10-03T07:06:08.990Z,2.30
2018-10-03T07:08:37.014Z,1.80
2018-10-03T07:11:05.756Z,2.53
2018-10-03T07:13:34.079Z,2.07
2018-10-03T07:16:02.773Z,1.43
2018-10-03T07:18:30.569Z,2.00
2018-10-03T07:20:58.717Z,2.27
2018-10-03T07:23:27.709Z,2.60
2018-10-03T07:25:56.801Z,3.10
2018-10-03T07:28:25.259Z,1.90
2018-10-03T07:30:53.624Z,1.20
2018-10-03T07:33:21.663Z,1.57
2018-10-03T07:35:49.432Z,1.40
2018-10-03T07:38:17.062Z,1.67
2018-10-03T07:40:45.152Z,2.17
2018-10-03T07:43:13.677Z,1.33
2018-10-03T07:45:41.338Z,3.07
2018-10-03T07:48:09.223Z,1.97
2018-10-03T07:50:38.134Z,1.03
2018-10-03T07:53:06.201Z,2.10
2018-10-03T07:55:34.175Z,1.40
2018-10-03T07:58:01.907Z,2.10
2018-10-03T08:00:30.491Z,1.80
2018-10-03T08:02:59.553Z,2.17
2018-10-03T08:05:28.224Z,2.53
2018-10-03T08:07:56.782Z,1.37
2018-10-03T08:10:25.054Z,1.70
2018-10-03T08:12:54.185Z,1.77
2018-10-03T08:15:22.164Z,2.60
2018-10-03T08:17:51.963Z,1.70
2018-10-03T08:20:20.972Z,1.53
2018-10-03T08:22:48.827Z,1.63
2018-10-03T08:25:16.806Z,2.30
2018-10-03T08:27:44.663Z,1.87
2018-10-03T08:30:13.250Z,1.60
2018-10-03T08:32:42.306Z,1.80
2018-10-03T08:35:10.127Z,1.50
2018-10-03T08:37:37.866Z,1.50
2018-10-03T08:40:09.482Z,1.70
2018-10-03T08:42:37.465Z,1.10
2018-10-03T08:45:06.136Z,1.17
2018-10-03T08:47:38.809Z,1.73
2018-10-03T08:50:07.832Z,1.77
2018-10-03T08:52:36.057Z,1.20
2018-10-03T08:55:03.978Z,1.70
2018-10-03T08:57:32.037Z,1.60
2018-10-03T08:59:59.799Z,1.50
2018-10-03T09:02:28.097Z,1.53
2018-10-03T09:04:56.237Z,1.80
2018-10-03T09:07:25.222Z,1.57
2018-10-03T09:09:53.457Z,1.53
2018-10-03T09:12:22.651Z,1.30
2018-10-03T09:14:50.433Z,2.40
2018-10-03T09:17:18.307Z,1.33
2018-10-03T09:19:46.147Z,1.53
2018-10-03T09:22:14.409Z,1.17
2018-10-03T09:24:42.368Z,1.33
2018-10-03T09:27:10.632Z,1.23
2018-10-03T09:29:38.552Z,1.47
2018-10-03T09:32:13.056Z,1.20
2018-10-03T09:34:41.005Z,1.60
2018-10-03T09:37:09.560Z,2.40
2018-10-03T09:39:38.330Z,1.13
2018-10-03T09:42:06.114Z,1.07
2018-10-03T09:44:34.454Z,1.30
2018-10-03T09:47:02.064Z,1.50
2018-10-03T09:49:30.063Z,1.30
2018-10-03T09:51:58.180Z,1.40
2018-10-03T09:54:25.966Z,1.33
2018-10-03T09:56:53.660Z,1.50
2018-10-03T09:59:21.412Z,1.70
2018-10-03T10:01:49.264Z,0.87
2018-10-03T10:04:17.393Z,1.60
2018-10-03T10:06:45.153Z,1.40
2018-10-03T10:09:13.870Z,1.70
2018-10-03T10:11:41.783Z,1.67
2018-10-03T10:14:09.559Z,1.40
2018-10-03T10:16:37.998Z,1.10
2018-10-03T10:19:05.968Z,1.40
2018-10-03T10:21:34.629Z,1.67
2018-10-03T10:24:03.662Z,1.53
2018-10-03T10:26:31.410Z,1.43
2018-10-03T10:28:59.152Z,1.30
2018-10-03T10:31:27.008Z,2.20
2018-10-03T10:33:54.854Z,1.53
2018-10-03T10:36:22.865Z,1.70
2018-10-03T10:38:52.702Z,1.20
2018-10-03T10:41:20.772Z,1.60
2018-10-03T10:43:48.768Z,1.87
2018-10-03T10:46:17.783Z,1.40
2018-10-03T10:48:46.073Z,1.47
2018-10-03T10:51:14.009Z,1.73
2018-10-03T10:53:41.968Z,1.40
2018-10-03T10:56:10.023Z,1.63
2018-10-03T10:58:37.837Z,1.47
2018-10-03T11:01:06.847Z,1.40
2018-10-03T11:03:35.200Z,1.90
2018-10-03T11:06:03.445Z,1.90
2018-10-03T11:08:31.469Z,1.40
2018-10-03T11:10:59.180Z,1.67
2018-10-03T11:13:28.949Z,1.30
2018-10-03T11:15:56.957Z,1.37
2018-10-03T11:18:28.773Z,1.60
2018-10-03T11:20:58.050Z,1.30
2018-10-03T11:23:26.195Z,2.00
2018-10-03T11:25:54.471Z,1.30
2018-10-03T11:28:22.993Z,2.03
2018-10-03T11:40:42.423Z,2.43
2018-10-03T11:43:12.502Z,1.60
2018-10-03T11:45:41.662Z,1.40
2018-10-03T11:48:12.027Z,2.17
2018-10-03T11:50:39.945Z,1.63
2018-10-03T11:53:07.946Z,1.40
2018-10-03T11:55:35.863Z,1.47
2018-10-03T11:58:04.967Z,1.50
2018-10-03T12:00:32.765Z,1.70
2018-10-03T12:03:02.665Z,1.80
2018-10-03T12:05:30.450Z,1.63
2018-10-03T12:07:58.523Z,1.67
2018-10-03T12:10:27.836Z,1.17
2018-10-03T12:12:57.035Z,1.40
2018-10-03T12:15:24.936Z,1.60
2018-10-03T12:17:53.910Z,1.50
2018-10-03T12:20:21.916Z,1.40
2018-10-03T12:22:51.178Z,1.80
2018-10-03T12:25:22.209Z,1.77
2018-10-03T12:27:50.809Z,1.60
2018-10-03T12:30:18.848Z,1.67
2018-10-03T12:32:46.813Z,1.23
2018-10-03T12:35:19.181Z,1.60
2018-10-03T12:37:47.217Z,2.20
2018-10-03T12:40:15.391Z,1.80
2018-10-03T12:42:43.536Z,1.10
2018-10-03T12:45:11.570Z,1.90
2018-10-03T12:47:39.973Z,1.53
2018-10-03T12:50:07.800Z,2.20
2018-10-03T12:52:36.067Z,2.67
2018-10-03T12:55:04.093Z,1.60
2018-10-03T12:57:32.176Z,1.40
2018-10-03T13:00:01.970Z,2.20
2018-10-03T13:02:30.133Z,1.60
2018-10-03T13:05:01.749Z,1.40
2018-10-03T13:07:29.566Z,1.23
2018-10-03T13:09:57.424Z,1.07
2018-10-03T13:12:26.336Z,1.30
2018-10-03T13:14:56.181Z,1.97
2018-10-03T13:17:24.329Z,2.03
2018-10-03T13:27:14.904Z,1.80
2018-10-03T13:29:43.040Z,2.40
2018-10-03T13:32:11.389Z,1.80
2018-10-03T13:34:39.864Z,1.50
2018-10-03T13:37:08.670Z,2.27
2018-10-03T13:39:37.335Z,1.50
2018-10-03T13:42:09.281Z,1.43
2018-10-03T13:44:49.898Z,2.47
2018-10-03T13:47:18.718Z,2.70
2018-10-03T13:52:50.899Z,1.80
2018-10-03T14:44:00.597Z,1.40
2018-10-03T14:46:28.789Z,2.20
2018-10-03T14:48:57.867Z,2.10
2018-10-03T14:51:26.093Z,2.50
2018-10-03T14:53:54.221Z,2.63
2018-10-03T14:56:29.429Z,1.77
2018-10-03T14:58:57.999Z,1.77
2018-10-03T15:01:26.150Z,1.80
2018-10-03T15:03:53.938Z,1.80
2018-10-03T15:06:21.958Z,1.40
2018-10-03T15:08:52.194Z,1.37
2018-10-03T15:11:20.249Z,1.90
2018-10-03T15:13:48.779Z,1.60
2018-10-03T15:16:16.756Z,2.03
2018-10-03T15:18:45.321Z,2.00
2018-10-03T15:21:13.036Z,1.70
2018-10-03T15:23:41.652Z,1.50
2018-10-03T15:26:09.580Z,1.67
2018-10-03T15:28:37.674Z,1.70
2018-10-03T15:31:05.859Z,1.80
2018-10-03T15:33:33.668Z,2.23
2018-10-03T15:36:02.496Z,2.30
2018-10-03T15:38:30.374Z,2.20
2018-10-03T15:40:58.983Z,1.77
2018-10-03T15:43:26.919Z,2.43
2018-10-03T15:45:54.824Z,1.73
2018-10-03T15:48:23.384Z,1.53
2018-10-03T15:50:52.355Z,2.00
2018-10-03T15:53:20.102Z,1.90
2018-10-03T15:55:48.088Z,1.67
2018-10-03T15:58:16.117Z,1.73
2018-10-03T16:00:44.129Z,1.60
2018-10-03T16:03:12.257Z,2.00
2018-10-03T16:05:39.951Z,1.33
2018-10-03T16:08:08.080Z,2.07
2018-10-03T16:10:36.377Z,2.07
2018-10-03T16:13:05.195Z,1.90
2018-10-03T16:15:34.732Z,1.50
2018-10-03T16:18:03.788Z,1.83
2018-10-03T16:20:32.004Z,1.70
2018-10-03T16:23:00.062Z,1.17
2018-10-03T16:25:28.053Z,1.27
2018-10-03T16:27:56.373Z,1.50
2018-10-03T16:30:24.425Z,1.30
2018-10-03T16:32:52.181Z,1.37
2018-10-03T16:35:20.336Z,1.73
2018-10-03T16:37:48.257Z,1.50
2018-10-03T16:43:27.263Z,1.90
2018-10-03T16:51:46.359Z,2.77
2018-10-03T16:54:14.813Z,1.77
2018-10-03T16:56:47.158Z,1.30
2018-10-03T16:59:21.823Z,1.87
2018-10-03T17:01:52.380Z,1.30
2018-10-03T17:04:21.204Z,1.53
2018-10-03T17:06:58.281Z,1.60
2018-10-03T17:09:26.880Z,1.97
2018-10-03T17:11:55.465Z,2.07
2018-10-03T17:14:29.688Z,1.20
2018-10-03T17:17:13.864Z,1.97
2018-10-03T17:19:41.653Z,2.10
2018-10-03T17:22:09.516Z,1.53
2018-10-03T17:24:38.268Z,1.53
2018-10-03T17:27:07.673Z,1.20
2018-10-03T17:29:35.787Z,1.80
2018-10-03T17:32:03.633Z,1.30
2018-10-03T17:34:31.450Z,2.00
2018-10-03T17:36:59.629Z,1.90
2018-10-03T17:39:41.311Z,1.10
2018-10-03T17:42:11.612Z,2.47
2018-10-03T17:44:43.432Z,2.43
2018-10-03T17:47:12.435Z,1.97
2018-10-03T17:49:40.576Z,2.13
2018-10-03T17:52:13.893Z,1.70
2018-10-03T17:54:42.483Z,1.80
2018-10-03T17:59:44.649Z,2.00
2018-10-03T18:02:13.476Z,1.60
2018-10-03T18:04:41.562Z,2.43
2018-10-03T18:07:09.886Z,1.90
2018-10-03T18:09:37.622Z,1.83
2018-10-03T18:12:06.625Z,2.33
2018-10-03T18:14:35.023Z,1.60
2018-10-03T18:17:05.139Z,2.10
2018-10-03T18:19:34.562Z,1.67
2018-10-03T18:22:02.847Z,1.63
2018-10-03T18:27:30.655Z,1.50
2018-10-03T18:29:58.938Z,1.83
2018-10-03T18:35:08.192Z,2.13
2018-10-03T18:37:36.391Z,2.53
2018-10-03T18:40:17.424Z,1.80
2018-10-03T18:42:45.828Z,2.20
2018-10-03T18:45:14.649Z,2.70
2018-10-03T18:47:57.725Z,2.10
2018-10-03T18:50:34.753Z,1.80
2018-10-03T18:53:03.515Z,1.97
2018-10-03T18:55:32.545Z,1.53
2018-10-03T18:58:00.507Z,2.60
2018-10-03T19:00:29.022Z,2.70
2018-10-03T19:02:56.841Z,2.03
2018-10-03T19:05:25.157Z,1.53
2018-10-03T19:07:53.416Z,1.80
2018-10-03T19:10:21.254Z,2.30
2018-10-03T19:12:49.805Z,1.53
2018-10-03T19:15:17.870Z,1.60
2018-10-03T19:17:46.175Z,2.60
2018-10-03T19:20:17.464Z,1.80
2018-10-03T19:22:46.582Z,2.20
2018-10-03T19:25:14.649Z,4.13
2018-10-03T19:27:42.582Z,1.40
2018-10-03T19:30:10.402Z,2.00
2018-10-03T19:32:38.289Z,1.53
2018-10-03T19:35:06.340Z,2.17
2018-10-03T19:37:34.664Z,2.70
2018-10-03T19:40:02.704Z,2.17
2018-10-03T19:42:30.618Z,1.60
2018-10-03T19:44:58.685Z,1.33
2018-10-03T19:47:26.593Z,2.07
2018-10-03T19:49:54.718Z,1.97
2018-10-03T19:52:23.098Z,1.87
2018-10-03T19:54:51.376Z,2.07
2018-10-03T19:57:19.275Z,2.27
2018-10-03T19:59:47.196Z,1.77
2018-10-03T20:02:15.897Z,2.60
2018-10-03T20:04:43.777Z,2.00
2018-10-03T20:07:11.628Z,2.20
2018-10-03T20:09:39.613Z,1.63
2018-10-03T20:12:07.544Z,2.40
2018-10-03T20:14:35.962Z,1.60
2018-10-03T20:17:03.817Z,1.30
2018-10-03T20:19:32.850Z,1.73
2018-10-03T20:22:01.066Z,2.00
2018-10-03T20:24:29.063Z,1.90
2018-10-03T20:26:57.298Z,2.13
2018-10-03T20:29:25.347Z,1.90
2018-10-03T20:31:53.697Z,1.90
2018-10-03T20:34:22.167Z,1.77
2018-10-03T20:36:50.822Z,2.23
2018-10-03T20:39:18.635Z,1.70
2018-10-03T20:41:46.586Z,1.60
2018-10-03T20:44:14.275Z,1.47
2018-10-03T20:46:47.044Z,1.67
2018-10-03T20:49:14.800Z,1.40
2018-10-03T20:51:42.693Z,1.90
2018-10-03T20:54:10.682Z,1.73
2018-10-03T20:56:38.665Z,1.37
2018-10-03T20:59:06.726Z,1.97
2018-10-03T21:01:34.792Z,2.23
2018-10-03T21:04:02.937Z,1.77
2018-10-03T21:06:30.957Z,2.03
2018-10-03T21:08:58.645Z,1.90
2018-10-03T21:11:26.827Z,1.67
2018-10-03T21:13:54.638Z,1.50
2018-10-03T21:16:22.751Z,1.40
2018-10-03T21:18:50.578Z,1.83
2018-10-03T21:21:18.886Z,2.87
2018-10-03T21:23:47.192Z,1.90
2018-10-03T21:26:15.700Z,1.90
2018-10-03T21:28:43.336Z,1.50
2018-10-03T21:31:11.311Z,1.53
2018-10-03T21:33:39.629Z,2.37
2018-10-03T21:36:07.595Z,2.00
2018-10-03T21:38:35.602Z,2.10
2018-10-03T21:41:03.569Z,2.03
2018-10-03T21:43:31.680Z,2.90
2018-10-03T21:45:59.394Z,1.70
2018-10-03T21:48:27.347Z,2.00
2018-10-03T21:50:55.638Z,1.60
2018-10-03T21:53:23.381Z,2.10
2018-10-03T21:55:51.336Z,1.77
2018-10-03T21:58:19.246Z,2.47
2018-10-03T22:00:51.960Z,1.70
2018-10-03T22:03:19.853Z,1.73
2018-10-03T22:05:47.705Z,2.00
2018-10-03T22:10:58.456Z,1.77
2018-10-03T22:13:26.285Z,1.40
2018-10-03T22:15:54.278Z,1.73
2018-10-03T22:18:22.065Z,1.63
2018-10-03T22:20:50.013Z,2.23
2018-10-03T22:23:17.814Z,1.70
2018-10-03T22:25:46.099Z,2.27
2018-10-03T22:28:13.894Z,2.20
2018-10-03T22:30:41.635Z,2.53
2018-10-03T22:33:09.349Z,2.70
2018-10-03T22:35:37.189Z,2.43
2018-10-03T22:38:05.083Z,2.50
2018-10-03T22:40:33.093Z,2.47
2018-10-03T22:43:00.891Z,1.40
2018-10-03T22:45:28.784Z,1.80
2018-10-03T22:47:56.491Z,2.67
2018-10-03T22:50:24.392Z,1.57
2018-10-03T22:52:52.492Z,2.60
2018-10-03T22:55:20.347Z,1.70
2018-10-03T22:57:47.964Z,1.93
2018-10-03T23:00:15.682Z,2.27
2018-10-03T23:02:43.494Z,1.80
2018-10-03T23:05:11.352Z,2.00
2018-10-03T23:07:39.083Z,2.17
2018-10-03T23:10:07.020Z,2.63
2018-10-03T23:12:34.857Z,1.60
2018-10-03T23:15:02.666Z,1.60
2018-10-03T23:17:30.501Z,2.47
2018-10-03T23:19:58.297Z,2.40
2018-10-03T23:22:26.138Z,2.10
2018-10-03T23:24:53.926Z,1.90
2018-10-03T23:27:21.765Z,2.20
2018-10-03T23:29:49.577Z,2.33
2018-10-03T23:32:17.317Z,2.17
2018-10-03T23:34:45.111Z,2.03
2018-10-03T23:37:13.246Z,2.53
2018-10-03T23:39:40.980Z,2.30
2018-10-03T23:42:08.681Z,1.97
2018-10-03T23:44:36.461Z,2.00
2018-10-03T23:47:04.581Z,2.00
2018-10-03T23:49:32.525Z,1.90
2018-10-03T23:52:00.286Z,2.10
2018-10-03T23:54:28.137Z,2.50
2018-10-03T23:56:55.926Z,1.93
2018-10-03T23:59:23.822Z,1.77
